sensor_id;sensor_type;location;lat;lon;timestamp;P1;durP1;ratioP1;P2;durP2;ratioP2
48911;SDS011;34722;52.108;5.044;2023-06-26T04:43:14;17.75;;;7.60;;
48911;SDS011;34722;52.108;5.044;2023-06-26T04:45:40;13.20;;;5.78;;
48911;SDS011;34722;52.108;5.044;2023-06-26T04:48:06;12.13;;;5.70;;
48911;SDS011;34722;52.108;5.044;2023-06-26T04:50:32;12.57;;;6.90;;
48911;SDS011;34722;52.108;5.044;2023-06-26T04:52:58;12.65;;;5.18;;
48911;SDS011;34722;52.108;5.044;2023-06-26T04:55:24;12.13;;;5.97;;
48911;SDS011;34722;52.108;5.044;2023-06-26T04:57:50;14.82;;;5.53;;
48911;SDS011;34722;52.108;5.044;2023-06-26T05:00:16;10.60;;;5.43;;
48911;SDS011;34722;52.108;5.044;2023-06-26T05:02:42;9.48;;;5.65;;
48911;SDS011;34722;52.108;5.044;2023-06-26T05:05:08;10.73;;;5.38;;
48911;SDS011;34722;52.108;5.044;2023-06-26T05:07:33;9.93;;;4.80;;
48911;SDS011;34722;52.108;5.044;2023-06-26T05:09:59;10.73;;;5.53;;
48911;SDS011;34722;52.108;5.044;2023-06-26T05:12:25;12.35;;;5.75;;
48911;SDS011;34722;52.108;5.044;2023-06-26T05:14:50;13.20;;;5.15;;
48911;SDS011;34722;52.108;5.044;2023-06-26T05:17:16;11.10;;;5.30;;
48911;SDS011;34722;52.108;5.044;2023-06-26T05:19:41;11.60;;;5.38;;
48911;SDS011;34722;52.108;5.044;2023-06-26T05:22:07;11.73;;;5.05;;
48911;SDS011;34722;52.108;5.044;2023-06-26T05:24:37;11.35;;;4.90;;
48911;SDS011;34722;52.108;5.044;2023-06-26T05:27:04;15.90;;;5.93;;
48911;SDS011;34722;52.108;5.044;2023-06-26T05:29:31;8.75;;;4.22;;
48911;SDS011;34722;52.108;5.044;2023-06-26T05:31:59;12.65;;;5.20;;
48911;SDS011;34722;52.108;5.044;2023-06-26T05:34:25;10.25;;;4.55;;
48911;SDS011;34722;52.108;5.044;2023-06-26T05:36:59;8.93;;;4.05;;
48911;SDS011;34722;52.108;5.044;2023-06-26T05:39:26;9.20;;;4.63;;
48911;SDS011;34722;52.108;5.044;2023-06-26T05:41:52;7.22;;;3.97;;
48911;SDS011;34722;52.108;5.044;2023-06-26T05:44:19;7.53;;;4.30;;
48911;SDS011;34722;52.108;5.044;2023-06-26T05:46:45;6.93;;;3.65;;
48911;SDS011;34722;52.108;5.044;2023-06-26T05:49:11;5.85;;;3.97;;
48911;SDS011;34722;52.108;5.044;2023-06-26T05:51:37;6.75;;;4.00;;
48911;SDS011;34722;52.108;5.044;2023-06-26T05:54:02;8.60;;;5.05;;
48911;SDS011;34722;52.108;5.044;2023-06-26T05:56:36;6.90;;;3.92;;
48911;SDS011;34722;52.108;5.044;2023-06-26T05:59:02;7.13;;;3.78;;
48911;SDS011;34722;52.108;5.044;2023-06-26T06:01:30;6.05;;;3.63;;
48911;SDS011;34722;52.108;5.044;2023-06-26T06:03:58;8.02;;;3.47;;
48911;SDS011;34722;52.108;5.044;2023-06-26T06:06:24;6.25;;;3.17;;
48911;SDS011;34722;52.108;5.044;2023-06-26T06:08:49;4.40;;;3.60;;
48911;SDS011;34722;52.108;5.044;2023-06-26T06:11:15;7.97;;;4.07;;
48911;SDS011;34722;52.108;5.044;2023-06-26T06:13:41;8.30;;;3.58;;
48911;SDS011;34722;52.108;5.044;2023-06-26T06:16:06;3.75;;;3.10;;
48911;SDS011;34722;52.108;5.044;2023-06-26T06:18:32;8.60;;;4.03;;
48911;SDS011;34722;52.108;5.044;2023-06-26T06:21:09;8.20;;;3.13;;
48911;SDS011;34722;52.108;5.044;2023-06-26T06:23:38;7.43;;;4.28;;
48911;SDS011;34722;52.108;5.044;2023-06-26T06:26:03;7.82;;;3.85;;
48911;SDS011;34722;52.108;5.044;2023-06-26T06:28:29;6.28;;;3.15;;
48911;SDS011;34722;52.108;5.044;2023-06-26T06:30:55;6.82;;;3.42;;
48911;SDS011;34722;52.108;5.044;2023-06-26T06:33:20;7.50;;;3.65;;
48911;SDS011;34722;52.108;5.044;2023-06-26T06:35:46;7.03;;;3.38;;
48911;SDS011;34722;52.108;5.044;2023-06-26T06:38:11;10.65;;;3.78;;
48911;SDS011;34722;52.108;5.044;2023-06-26T06:40:37;7.75;;;4.18;;
48911;SDS011;34722;52.108;5.044;2023-06-26T06:43:02;6.05;;;3.50;;
48911;SDS011;34722;52.108;5.044;2023-06-26T06:45:28;8.05;;;3.90;;
48911;SDS011;34722;52.108;5.044;2023-06-26T06:47:54;5.85;;;3.58;;
48911;SDS011;34722;52.108;5.044;2023-06-26T06:50:20;5.10;;;3.47;;
48911;SDS011;34722;52.108;5.044;2023-06-26T06:52:46;9.85;;;3.10;;
48911;SDS011;34722;52.108;5.044;2023-06-26T06:55:12;6.00;;;3.10;;
48911;SDS011;34722;52.108;5.044;2023-06-26T06:57:39;7.82;;;3.53;;
48911;SDS011;34722;52.108;5.044;2023-06-26T07:00:06;6.38;;;2.75;;
48911;SDS011;34722;52.108;5.044;2023-06-26T07:02:34;4.93;;;3.05;;
48911;SDS011;34722;52.108;5.044;2023-06-26T07:05:01;4.78;;;3.00;;
48911;SDS011;34722;52.108;5.044;2023-06-26T07:07:29;5.28;;;2.80;;
48911;SDS011;34722;52.108;5.044;2023-06-26T07:09:57;5.22;;;2.72;;
48911;SDS011;34722;52.108;5.044;2023-06-26T07:12:27;7.75;;;2.90;;
48911;SDS011;34722;52.108;5.044;2023-06-26T07:14:53;4.63;;;2.85;;
48911;SDS011;34722;52.108;5.044;2023-06-26T07:17:20;6.78;;;2.72;;
48911;SDS011;34722;52.108;5.044;2023-06-26T07:19:46;4.22;;;2.65;;
48911;SDS011;34722;52.108;5.044;2023-06-26T07:22:12;5.35;;;2.85;;
48911;SDS011;34722;52.108;5.044;2023-06-26T07:24:38;5.68;;;2.63;;
48911;SDS011;34722;52.108;5.044;2023-06-26T07:27:03;5.32;;;2.70;;
48911;SDS011;34722;52.108;5.044;2023-06-26T07:29:29;5.78;;;2.95;;
48911;SDS011;34722;52.108;5.044;2023-06-26T07:31:55;6.68;;;2.95;;
48911;SDS011;34722;52.108;5.044;2023-06-26T07:34:20;7.38;;;2.75;;
48911;SDS011;34722;52.108;5.044;2023-06-26T07:36:46;15.10;;;3.85;;
48911;SDS011;34722;52.108;5.044;2023-06-26T07:39:12;6.65;;;3.17;;
48911;SDS011;34722;52.108;5.044;2023-06-26T07:41:37;6.72;;;3.00;;
48911;SDS011;34722;52.108;5.044;2023-06-26T07:44:03;7.15;;;3.72;;
48911;SDS011;34722;52.108;5.044;2023-06-26T07:46:28;4.53;;;3.20;;
48911;SDS011;34722;52.108;5.044;2023-06-26T07:48:54;5.88;;;2.72;;
48911;SDS011;34722;52.108;5.044;2023-06-26T07:51:20;7.20;;;2.63;;
48911;SDS011;34722;52.108;5.044;2023-06-26T07:53:46;8.38;;;3.33;;
48911;SDS011;34722;52.108;5.044;2023-06-26T07:56:12;10.05;;;2.67;;
48911;SDS011;34722;52.108;5.044;2023-06-26T07:58:37;6.07;;;2.45;;
48911;SDS011;34722;52.108;5.044;2023-06-26T08:01:03;5.00;;;2.40;;
48911;SDS011;34722;52.108;5.044;2023-06-26T08:03:28;6.57;;;2.70;;
48911;SDS011;34722;52.108;5.044;2023-06-26T08:05:54;5.07;;;3.30;;
48911;SDS011;34722;52.108;5.044;2023-06-26T08:08:20;5.13;;;2.35;;
48911;SDS011;34722;52.108;5.044;2023-06-26T08:10:46;4.40;;;2.55;;
48911;SDS011;34722;52.108;5.044;2023-06-26T08:13:11;5.35;;;2.25;;
48911;SDS011;34722;52.108;5.044;2023-06-26T08:15:37;3.47;;;1.95;;
48911;SDS011;34722;52.108;5.044;2023-06-26T08:18:02;5.93;;;2.30;;
48911;SDS011;34722;52.108;5.044;2023-06-26T08:20:28;6.28;;;2.58;;
48911;SDS011;34722;52.108;5.044;2023-06-26T08:22:54;6.03;;;3.25;;
48911;SDS011;34722;52.108;5.044;2023-06-26T08:25:20;4.47;;;2.30;;
48911;SDS011;34722;52.108;5.044;2023-06-26T08:27:45;8.10;;;2.22;;
48911;SDS011;34722;52.108;5.044;2023-06-26T08:30:11;5.57;;;2.22;;
48911;SDS011;34722;52.108;5.044;2023-06-26T08:32:38;5.63;;;2.55;;
48911;SDS011;34722;52.108;5.044;2023-06-26T08:35:04;6.80;;;2.67;;
48911;SDS011;34722;52.108;5.044;2023-06-26T08:37:31;6.93;;;2.15;;
48911;SDS011;34722;52.108;5.044;2023-06-26T08:39:57;4.15;;;1.90;;
48911;SDS011;34722;52.108;5.044;2023-06-26T08:42:26;3.75;;;2.05;;
48911;SDS011;34722;52.108;5.044;2023-06-26T08:44:51;5.80;;;2.60;;
48911;SDS011;34722;52.108;5.044;2023-06-26T08:47:17;4.43;;;2.47;;
48911;SDS011;34722;52.108;5.044;2023-06-26T08:52:24;5.93;;;2.50;;
48911;SDS011;34722;52.108;5.044;2023-06-26T08:54:58;3.78;;;2.20;;
48911;SDS011;34722;52.108;5.044;2023-06-26T08:57:26;4.15;;;2.63;;
48911;SDS011;34722;52.108;5.044;2023-06-26T08:59:53;4.90;;;2.75;;
48911;SDS011;34722;52.108;5.044;2023-06-26T09:02:19;6.72;;;2.70;;
48911;SDS011;34722;52.108;5.044;2023-06-26T09:04:46;7.25;;;2.03;;
48911;SDS011;34722;52.108;5.044;2023-06-26T09:07:13;4.03;;;2.53;;
48911;SDS011;34722;52.108;5.044;2023-06-26T09:09:39;4.30;;;2.33;;
48911;SDS011;34722;52.108;5.044;2023-06-26T09:12:04;3.38;;;2.50;;
48911;SDS011;34722;52.108;5.044;2023-06-26T09:14:30;3.97;;;2.17;;
48911;SDS011;34722;52.108;5.044;2023-06-26T09:16:56;3.08;;;2.20;;
48911;SDS011;34722;52.108;5.044;2023-06-26T09:19:21;5.22;;;2.50;;
48911;SDS011;34722;52.108;5.044;2023-06-26T09:21:49;3.92;;;2.10;;
48911;SDS011;34722;52.108;5.044;2023-06-26T09:24:16;4.40;;;2.00;;
48911;SDS011;34722;52.108;5.044;2023-06-26T09:26:42;4.82;;;2.97;;
48911;SDS011;34722;52.108;5.044;2023-06-26T09:29:08;4.35;;;2.10;;
48911;SDS011;34722;52.108;5.044;2023-06-26T09:31:38;2.00;;;1.80;;
48911;SDS011;34722;52.108;5.044;2023-06-26T09:34:04;2.67;;;1.83;;
48911;SDS011;34722;52.108;5.044;2023-06-26T09:36:31;5.78;;;2.30;;
48911;SDS011;34722;52.108;5.044;2023-06-26T09:39:04;5.10;;;2.20;;
48911;SDS011;34722;52.108;5.044;2023-06-26T09:41:35;6.65;;;1.90;;
48911;SDS011;34722;52.108;5.044;2023-06-26T09:44:03;4.80;;;2.22;;
48911;SDS011;34722;52.108;5.044;2023-06-26T09:46:32;1.98;;;1.77;;
48911;SDS011;34722;52.108;5.044;2023-06-26T09:49:08;5.20;;;2.08;;
48911;SDS011;34722;52.108;5.044;2023-06-26T09:51:38;6.28;;;2.60;;
48911;SDS011;34722;52.108;5.044;2023-06-26T09:54:06;5.47;;;2.58;;
48911;SDS011;34722;52.108;5.044;2023-06-26T09:56:32;2.90;;;2.47;;
48911;SDS011;34722;52.108;5.044;2023-06-26T09:59:00;3.58;;;1.98;;
48911;SDS011;34722;52.108;5.044;2023-06-26T10:01:27;4.55;;;1.92;;
48911;SDS011;34722;52.108;5.044;2023-06-26T10:03:54;5.82;;;2.17;;
48911;SDS011;34722;52.108;5.044;2023-06-26T10:06:23;5.15;;;2.40;;
48911;SDS011;34722;52.108;5.044;2023-06-26T10:08:59;2.67;;;1.77;;
48911;SDS011;34722;52.108;5.044;2023-06-26T10:11:28;4.32;;;2.35;;
48911;SDS011;34722;52.108;5.044;2023-06-26T10:14:05;5.15;;;2.08;;
48911;SDS011;34722;52.108;5.044;2023-06-26T10:16:33;3.67;;;2.50;;
48911;SDS011;34722;52.108;5.044;2023-06-26T10:19:05;4.75;;;2.13;;
48911;SDS011;34722;52.108;5.044;2023-06-26T10:21:34;3.35;;;2.10;;
48911;SDS011;34722;52.108;5.044;2023-06-26T10:24:00;2.90;;;2.00;;
48911;SDS011;34722;52.108;5.044;2023-06-26T10:26:28;5.53;;;2.20;;
48911;SDS011;34722;52.108;5.044;2023-06-26T10:28:55;3.10;;;2.30;;
48911;SDS011;34722;52.108;5.044;2023-06-26T10:31:23;4.93;;;2.08;;
48911;SDS011;34722;52.108;5.044;2023-06-26T10:33:51;3.15;;;1.95;;
48911;SDS011;34722;52.108;5.044;2023-06-26T10:36:18;8.40;;;2.30;;
48911;SDS011;34722;52.108;5.044;2023-06-26T10:38:49;6.47;;;2.17;;
48911;SDS011;34722;52.108;5.044;2023-06-26T10:41:21;4.93;;;2.40;;
48911;SDS011;34722;52.108;5.044;2023-06-26T10:43:51;5.50;;;2.22;;
48911;SDS011;34722;52.108;5.044;2023-06-26T10:46:26;5.05;;;2.20;;
48911;SDS011;34722;52.108;5.044;2023-06-26T10:48:58;3.70;;;1.90;;
48911;SDS011;34722;52.108;5.044;2023-06-26T10:51:28;3.08;;;1.85;;
48911;SDS011;34722;52.108;5.044;2023-06-26T10:53:54;6.20;;;2.30;;
48911;SDS011;34722;52.108;5.044;2023-06-26T10:56:21;3.67;;;1.73;;
48911;SDS011;34722;52.108;5.044;2023-06-26T10:59:15;3.75;;;1.77;;
48911;SDS011;34722;52.108;5.044;2023-06-26T11:02:06;4.05;;;1.80;;
48911;SDS011;34722;52.108;5.044;2023-06-26T11:04:47;3.42;;;2.00;;
48911;SDS011;34722;52.108;5.044;2023-06-26T11:07:22;3.88;;;2.00;;
48911;SDS011;34722;52.108;5.044;2023-06-26T11:09:56;2.55;;;1.70;;
48911;SDS011;34722;52.108;5.044;2023-06-26T11:12:45;3.25;;;1.90;;
48911;SDS011;34722;52.108;5.044;2023-06-26T11:15:15;3.83;;;1.90;;
48911;SDS011;34722;52.108;5.044;2023-06-26T11:17:42;5.70;;;2.00;;
48911;SDS011;34722;52.108;5.044;2023-06-26T11:20:09;5.55;;;2.40;;
48911;SDS011;34722;52.108;5.044;2023-06-26T11:22:41;3.83;;;1.77;;
48911;SDS011;34722;52.108;5.044;2023-06-26T11:25:11;1.95;;;1.85;;
48911;SDS011;34722;52.108;5.044;2023-06-26T11:27:40;4.97;;;1.58;;
48911;SDS011;34722;52.108;5.044;2023-06-26T11:30:08;3.53;;;1.40;;
48911;SDS011;34722;52.108;5.044;2023-06-26T11:32:38;3.55;;;1.38;;
48911;SDS011;34722;52.108;5.044;2023-06-26T11:35:07;3.55;;;1.70;;
48911;SDS011;34722;52.108;5.044;2023-06-26T11:37:34;2.42;;;1.50;;
48911;SDS011;34722;52.108;5.044;2023-06-26T11:40:15;4.78;;;1.88;;
48911;SDS011;34722;52.108;5.044;2023-06-26T11:42:42;4.28;;;2.85;;
48911;SDS011;34722;52.108;5.044;2023-06-26T11:45:12;6.50;;;1.50;;
48911;SDS011;34722;52.108;5.044;2023-06-26T11:47:44;3.90;;;1.50;;
48911;SDS011;34722;52.108;5.044;2023-06-26T11:50:14;3.90;;;2.08;;
48911;SDS011;34722;52.108;5.044;2023-06-26T11:52:42;2.60;;;1.40;;
48911;SDS011;34722;52.108;5.044;2023-06-26T11:55:08;2.33;;;1.73;;
48911;SDS011;34722;52.108;5.044;2023-06-26T11:57:35;4.25;;;1.50;;
48911;SDS011;34722;52.108;5.044;2023-06-26T12:00:11;2.72;;;1.73;;
48911;SDS011;34722;52.108;5.044;2023-06-26T12:02:39;2.60;;;1.70;;
48911;SDS011;34722;52.108;5.044;2023-06-26T12:05:05;4.40;;;1.50;;
48911;SDS011;34722;52.108;5.044;2023-06-26T12:07:32;3.28;;;1.48;;
48911;SDS011;34722;52.108;5.044;2023-06-26T12:09:59;4.35;;;1.50;;
48911;SDS011;34722;52.108;5.044;2023-06-26T12:12:25;3.92;;;1.33;;
48911;SDS011;34722;52.108;5.044;2023-06-26T12:14:51;4.15;;;1.52;;
48911;SDS011;34722;52.108;5.044;2023-06-26T12:17:17;2.10;;;1.48;;
48911;SDS011;34722;52.108;5.044;2023-06-26T12:19:48;1.48;;;1.38;;
48911;SDS011;34722;52.108;5.044;2023-06-26T12:22:14;3.05;;;1.55;;
48911;SDS011;34722;52.108;5.044;2023-06-26T12:24:41;1.95;;;1.35;;
48911;SDS011;34722;52.108;5.044;2023-06-26T12:27:15;2.65;;;1.55;;
48911;SDS011;34722;52.108;5.044;2023-06-26T12:29:47;5.28;;;1.73;;
48911;SDS011;34722;52.108;5.044;2023-06-26T12:32:16;2.88;;;1.65;;
48911;SDS011;34722;52.108;5.044;2023-06-26T12:34:46;3.25;;;1.90;;
48911;SDS011;34722;52.108;5.044;2023-06-26T12:37:14;5.13;;;2.10;;
48911;SDS011;34722;52.108;5.044;2023-06-26T12:39:52;3.60;;;1.92;;
48911;SDS011;34722;52.108;5.044;2023-06-26T12:42:39;4.57;;;2.00;;
48911;SDS011;34722;52.108;5.044;2023-06-26T12:45:11;3.75;;;1.75;;
48911;SDS011;34722;52.108;5.044;2023-06-26T12:47:37;4.22;;;1.45;;
48911;SDS011;34722;52.108;5.044;2023-06-26T12:50:11;4.40;;;1.70;;
48911;SDS011;34722;52.108;5.044;2023-06-26T12:52:49;2.05;;;1.45;;
48911;SDS011;34722;52.108;5.044;2023-06-26T12:55:15;5.07;;;1.80;;
48911;SDS011;34722;52.108;5.044;2023-06-26T12:57:41;3.85;;;1.58;;
48911;SDS011;34722;52.108;5.044;2023-06-26T13:00:06;2.50;;;1.85;;
48911;SDS011;34722;52.108;5.044;2023-06-26T13:02:34;3.53;;;1.90;;
48911;SDS011;34722;52.108;5.044;2023-06-26T13:05:00;4.93;;;2.38;;
48911;SDS011;34722;52.108;5.044;2023-06-26T13:07:26;5.22;;;1.92;;
48911;SDS011;34722;52.108;5.044;2023-06-26T13:09:52;2.13;;;1.45;;
48911;SDS011;34722;52.108;5.044;2023-06-26T13:12:18;7.68;;;1.60;;
48911;SDS011;34722;52.108;5.044;2023-06-26T13:14:46;7.55;;;1.65;;
48911;SDS011;34722;52.108;5.044;2023-06-26T13:17:12;3.70;;;1.40;;
48911;SDS011;34722;52.108;5.044;2023-06-26T13:19:37;2.50;;;1.73;;
48911;SDS011;34722;52.108;5.044;2023-06-26T13:22:03;3.97;;;1.73;;
48911;SDS011;34722;52.108;5.044;2023-06-26T13:24:29;4.72;;;1.67;;
48911;SDS011;34722;52.108;5.044;2023-06-26T13:26:54;2.45;;;1.90;;
48911;SDS011;34722;52.108;5.044;2023-06-26T13:29:22;2.92;;;1.52;;
48911;SDS011;34722;52.108;5.044;2023-06-26T13:31:48;4.18;;;1.60;;
48911;SDS011;34722;52.108;5.044;2023-06-26T13:34:24;3.35;;;1.70;;
48911;SDS011;34722;52.108;5.044;2023-06-26T13:36:52;1.98;;;1.48;;
48911;SDS011;34722;52.108;5.044;2023-06-26T13:39:19;3.50;;;1.88;;
48911;SDS011;34722;52.108;5.044;2023-06-26T13:41:45;1.95;;;1.75;;
48911;SDS011;34722;52.108;5.044;2023-06-26T13:44:11;2.28;;;1.38;;
48911;SDS011;34722;52.108;5.044;2023-06-26T13:46:37;5.35;;;1.90;;
48911;SDS011;34722;52.108;5.044;2023-06-26T13:49:02;5.10;;;2.40;;
48911;SDS011;34722;52.108;5.044;2023-06-26T13:51:28;2.42;;;1.60;;
48911;SDS011;34722;52.108;5.044;2023-06-26T13:53:54;4.10;;;1.73;;
48911;SDS011;34722;52.108;5.044;2023-06-26T13:59:30;2.60;;;1.60;;
48911;SDS011;34722;52.108;5.044;2023-06-26T14:02:01;4.07;;;1.60;;
48911;SDS011;34722;52.108;5.044;2023-06-26T14:04:27;4.25;;;1.50;;
48911;SDS011;34722;52.108;5.044;2023-06-26T14:06:53;3.17;;;1.52;;
48911;SDS011;34722;52.108;5.044;2023-06-26T14:09:19;2.88;;;1.42;;
48911;SDS011;34722;52.108;5.044;2023-06-26T14:11:44;1.65;;;1.55;;
48911;SDS011;34722;52.108;5.044;2023-06-26T14:14:10;1.40;;;1.30;;
48911;SDS011;34722;52.108;5.044;2023-06-26T14:16:36;2.38;;;1.35;;
48911;SDS011;34722;52.108;5.044;2023-06-26T14:19:02;2.97;;;1.73;;
48911;SDS011;34722;52.108;5.044;2023-06-26T14:21:30;2.60;;;1.40;;
48911;SDS011;34722;52.108;5.044;2023-06-26T14:23:58;1.67;;;1.38;;
48911;SDS011;34722;52.108;5.044;2023-06-26T14:29:46;3.88;;;1.77;;
48911;SDS011;34722;52.108;5.044;2023-06-26T14:32:12;3.63;;;1.65;;
48911;SDS011;34722;52.108;5.044;2023-06-26T14:34:39;2.92;;;1.40;;
48911;SDS011;34722;52.108;5.044;2023-06-26T14:37:07;3.47;;;1.80;;
48911;SDS011;34722;52.108;5.044;2023-06-26T14:39:33;3.63;;;1.70;;
48911;SDS011;34722;52.108;5.044;2023-06-26T14:41:59;2.20;;;1.20;;
48911;SDS011;34722;52.108;5.044;2023-06-26T14:44:24;2.45;;;1.85;;
48911;SDS011;34722;52.108;5.044;2023-06-26T14:46:50;3.00;;;1.98;;
48911;SDS011;34722;52.108;5.044;2023-06-26T14:49:15;3.22;;;1.70;;
48911;SDS011;34722;52.108;5.044;2023-06-26T14:51:41;2.83;;;1.65;;
48911;SDS011;34722;52.108;5.044;2023-06-26T14:54:06;2.95;;;2.35;;
48911;SDS011;34722;52.108;5.044;2023-06-26T14:56:33;2.95;;;1.60;;
48911;SDS011;34722;52.108;5.044;2023-06-26T14:58:59;3.70;;;2.00;;
48911;SDS011;34722;52.108;5.044;2023-06-26T15:01:25;3.53;;;1.90;;
48911;SDS011;34722;52.108;5.044;2023-06-26T15:03:50;3.42;;;1.80;;
48911;SDS011;34722;52.108;5.044;2023-06-26T15:06:16;4.68;;;2.17;;
48911;SDS011;34722;52.108;5.044;2023-06-26T15:08:42;1.98;;;1.88;;
48911;SDS011;34722;52.108;5.044;2023-06-26T15:11:07;4.25;;;1.83;;
48911;SDS011;34722;52.108;5.044;2023-06-26T15:13:33;4.47;;;2.17;;
48911;SDS011;34722;52.108;5.044;2023-06-26T15:16:05;2.10;;;1.85;;
48911;SDS011;34722;52.108;5.044;2023-06-26T15:18:31;4.88;;;1.77;;
48911;SDS011;34722;52.108;5.044;2023-06-26T15:20:56;3.65;;;3.05;;
48911;SDS011;34722;52.108;5.044;2023-06-26T15:23:22;3.90;;;2.00;;
48911;SDS011;34722;52.108;5.044;2023-06-26T15:25:47;4.20;;;2.15;;
48911;SDS011;34722;52.108;5.044;2023-06-26T15:28:13;4.30;;;2.80;;
48911;SDS011;34722;52.108;5.044;2023-06-26T15:30:38;2.03;;;1.70;;
48911;SDS011;34722;52.108;5.044;2023-06-26T15:33:04;4.65;;;1.85;;
48911;SDS011;34722;52.108;5.044;2023-06-26T15:35:32;9.68;;;5.10;;
48911;SDS011;34722;52.108;5.044;2023-06-26T15:37:58;3.08;;;2.10;;
48911;SDS011;34722;52.108;5.044;2023-06-26T15:40:24;7.45;;;2.08;;
48911;SDS011;34722;52.108;5.044;2023-06-26T15:42:50;2.67;;;1.70;;
48911;SDS011;34722;52.108;5.044;2023-06-26T15:45:17;6.05;;;1.88;;
48911;SDS011;34722;52.108;5.044;2023-06-26T15:47:43;2.85;;;2.00;;
48911;SDS011;34722;52.108;5.044;2023-06-26T15:50:10;4.53;;;1.65;;
48911;SDS011;34722;52.108;5.044;2023-06-26T15:52:36;3.20;;;1.65;;
48911;SDS011;34722;52.108;5.044;2023-06-26T15:55:03;5.15;;;2.00;;
48911;SDS011;34722;52.108;5.044;2023-06-26T15:57:30;8.18;;;3.20;;
48911;SDS011;34722;52.108;5.044;2023-06-26T15:59:57;6.53;;;1.92;;
48911;SDS011;34722;52.108;5.044;2023-06-26T16:02:23;2.75;;;1.70;;
48911;SDS011;34722;52.108;5.044;2023-06-26T16:04:49;4.93;;;1.70;;
48911;SDS011;34722;52.108;5.044;2023-06-26T16:07:15;4.10;;;2.03;;
48911;SDS011;34722;52.108;5.044;2023-06-26T16:09:41;3.35;;;1.92;;
48911;SDS011;34722;52.108;5.044;2023-06-26T16:12:07;3.53;;;2.05;;
48911;SDS011;34722;52.108;5.044;2023-06-26T16:14:32;7.93;;;2.13;;
48911;SDS011;34722;52.108;5.044;2023-06-26T16:16:58;3.10;;;1.92;;
48911;SDS011;34722;52.108;5.044;2023-06-26T16:19:25;2.85;;;1.83;;
48911;SDS011;34722;52.108;5.044;2023-06-26T16:21:50;5.32;;;2.20;;
48911;SDS011;34722;52.108;5.044;2023-06-26T16:24:16;6.93;;;1.98;;
48911;SDS011;34722;52.108;5.044;2023-06-26T16:26:42;5.65;;;2.20;;
48911;SDS011;34722;52.108;5.044;2023-06-26T16:29:07;5.05;;;2.00;;
48911;SDS011;34722;52.108;5.044;2023-06-26T16:31:36;5.05;;;2.33;;
48911;SDS011;34722;52.108;5.044;2023-06-26T16:34:02;4.65;;;2.30;;
48911;SDS011;34722;52.108;5.044;2023-06-26T16:36:27;3.17;;;2.20;;
48911;SDS011;34722;52.108;5.044;2023-06-26T16:38:53;5.40;;;1.90;;
48911;SDS011;34722;52.108;5.044;2023-06-26T16:41:19;5.07;;;2.22;;
48911;SDS011;34722;52.108;5.044;2023-06-26T16:43:45;6.70;;;1.92;;
48911;SDS011;34722;52.108;5.044;2023-06-26T16:46:11;4.78;;;2.85;;
48911;SDS011;34722;52.108;5.044;2023-06-26T16:48:37;2.83;;;1.98;;
48911;SDS011;34722;52.108;5.044;2023-06-26T16:51:05;3.58;;;1.95;;
48911;SDS011;34722;52.108;5.044;2023-06-26T16:53:31;5.10;;;1.75;;
48911;SDS011;34722;52.108;5.044;2023-06-26T16:55:57;2.92;;;1.95;;
48911;SDS011;34722;52.108;5.044;2023-06-26T16:58:22;5.32;;;1.90;;
48911;SDS011;34722;52.108;5.044;2023-06-26T17:03:31;4.35;;;2.47;;
48911;SDS011;34722;52.108;5.044;2023-06-26T17:05:57;4.10;;;2.00;;
48911;SDS011;34722;52.108;5.044;2023-06-26T17:08:25;12.40;;;2.10;;
48911;SDS011;34722;52.108;5.044;2023-06-26T17:10:54;3.33;;;1.70;;
48911;SDS011;34722;52.108;5.044;2023-06-26T17:13:20;5.03;;;1.90;;
48911;SDS011;34722;52.108;5.044;2023-06-26T17:15:46;3.97;;;1.88;;
48911;SDS011;34722;52.108;5.044;2023-06-26T17:18:11;6.22;;;2.00;;
48911;SDS011;34722;52.108;5.044;2023-06-26T17:20:37;2.17;;;1.98;;
48911;SDS011;34722;52.108;5.044;2023-06-26T17:23:03;6.03;;;2.50;;
48911;SDS011;34722;52.108;5.044;2023-06-26T17:25:29;3.13;;;2.00;;
48911;SDS011;34722;52.108;5.044;2023-06-26T17:27:55;5.18;;;2.13;;
48911;SDS011;34722;52.108;5.044;2023-06-26T17:30:21;2.33;;;1.70;;
48911;SDS011;34722;52.108;5.044;2023-06-26T17:32:48;3.70;;;1.92;;
48911;SDS011;34722;52.108;5.044;2023-06-26T17:37:46;6.25;;;3.35;;
48911;SDS011;34722;52.108;5.044;2023-06-26T17:40:19;5.75;;;2.45;;
48911;SDS011;34722;52.108;5.044;2023-06-26T17:42:44;6.32;;;2.40;;
48911;SDS011;34722;52.108;5.044;2023-06-26T17:45:13;3.78;;;1.98;;
48911;SDS011;34722;52.108;5.044;2023-06-26T17:47:40;4.82;;;2.10;;
48911;SDS011;34722;52.108;5.044;2023-06-26T17:50:07;6.78;;;2.30;;
48911;SDS011;34722;52.108;5.044;2023-06-26T17:52:36;7.30;;;1.88;;
48911;SDS011;34722;52.108;5.044;2023-06-26T17:55:08;5.72;;;2.10;;
48911;SDS011;34722;52.108;5.044;2023-06-26T17:57:34;8.60;;;2.40;;
48911;SDS011;34722;52.108;5.044;2023-06-26T18:00:01;6.28;;;2.63;;
48911;SDS011;34722;52.108;5.044;2023-06-26T18:02:33;4.68;;;2.10;;
48911;SDS011;34722;52.108;5.044;2023-06-26T18:05:11;4.15;;;1.90;;
48911;SDS011;34722;52.108;5.044;2023-06-26T18:07:46;5.45;;;2.50;;
48911;SDS011;34722;52.108;5.044;2023-06-26T18:10:12;4.82;;;2.40;;
48911;SDS011;34722;52.108;5.044;2023-06-26T18:12:38;4.22;;;2.88;;
48911;SDS011;34722;52.108;5.044;2023-06-26T18:15:03;6.57;;;2.22;;
48911;SDS011;34722;52.108;5.044;2023-06-26T18:17:30;5.65;;;2.45;;
48911;SDS011;34722;52.108;5.044;2023-06-26T18:19:56;5.38;;;2.30;;
48911;SDS011;34722;52.108;5.044;2023-06-26T18:22:22;5.45;;;2.63;;
48911;SDS011;34722;52.108;5.044;2023-06-26T18:24:48;5.55;;;2.20;;
48911;SDS011;34722;52.108;5.044;2023-06-26T18:27:14;6.88;;;2.45;;
48911;SDS011;34722;52.108;5.044;2023-06-26T18:29:40;6.40;;;2.42;;
48911;SDS011;34722;52.108;5.044;2023-06-26T18:32:19;5.13;;;2.40;;
48911;SDS011;34722;52.108;5.044;2023-06-26T18:34:51;8.38;;;2.67;;
48911;SDS011;34722;52.108;5.044;2023-06-26T18:37:25;5.75;;;2.33;;
48911;SDS011;34722;52.108;5.044;2023-06-26T18:39:54;3.92;;;2.28;;
48911;SDS011;34722;52.108;5.044;2023-06-26T18:42:20;14.13;;;3.70;;
48911;SDS011;34722;52.108;5.044;2023-06-26T18:44:49;9.68;;;2.60;;
48911;SDS011;34722;52.108;5.044;2023-06-26T18:47:20;10.20;;;3.08;;
48911;SDS011;34722;52.108;5.044;2023-06-26T18:49:51;4.05;;;2.50;;
48911;SDS011;34722;52.108;5.044;2023-06-26T18:52:18;5.57;;;2.80;;
48911;SDS011;34722;52.108;5.044;2023-06-26T18:54:44;5.20;;;2.40;;
48911;SDS011;34722;52.108;5.044;2023-06-26T18:57:10;6.80;;;2.72;;
48911;SDS011;34722;52.108;5.044;2023-06-26T18:59:39;7.57;;;2.53;;
48911;SDS011;34722;52.108;5.044;2023-06-26T19:02:06;4.70;;;2.60;;
48911;SDS011;34722;52.108;5.044;2023-06-26T19:04:32;5.50;;;3.00;;
48911;SDS011;34722;52.108;5.044;2023-06-26T19:06:57;8.85;;;2.78;;
48911;SDS011;34722;52.108;5.044;2023-06-26T19:09:29;7.38;;;2.72;;
48911;SDS011;34722;52.108;5.044;2023-06-26T19:14:43;6.72;;;3.40;;
48911;SDS011;34722;52.108;5.044;2023-06-26T19:17:09;4.28;;;2.60;;
48911;SDS011;34722;52.108;5.044;2023-06-26T19:19:38;9.23;;;3.22;;
48911;SDS011;34722;52.108;5.044;2023-06-26T19:22:04;3.58;;;2.40;;
48911;SDS011;34722;52.108;5.044;2023-06-26T19:24:40;3.40;;;2.90;;
48911;SDS011;34722;52.108;5.044;2023-06-26T19:27:06;6.78;;;2.40;;
48911;SDS011;34722;52.108;5.044;2023-06-26T19:29:32;6.03;;;2.80;;
48911;SDS011;34722;52.108;5.044;2023-06-26T19:31:57;6.10;;;2.33;;
48911;SDS011;34722;52.108;5.044;2023-06-26T19:34:34;5.63;;;2.97;;
48911;SDS011;34722;52.108;5.044;2023-06-26T19:37:00;4.78;;;2.65;;
48911;SDS011;34722;52.108;5.044;2023-06-26T19:39:29;4.65;;;2.58;;
48911;SDS011;34722;52.108;5.044;2023-06-26T19:41:55;6.68;;;2.90;;
48911;SDS011;34722;52.108;5.044;2023-06-26T19:44:24;6.25;;;2.40;;
48911;SDS011;34722;52.108;5.044;2023-06-26T19:46:52;7.90;;;2.63;;
48911;SDS011;34722;52.108;5.044;2023-06-26T19:49:19;6.07;;;3.40;;